HAZ5819 ZSPD-ZBAD
Flight info
| Callsign | HAZ5819 |
|---|---|
| Flight time | 2h 7m |
| Altitude | 36100 |
| Route | PIK93D PIKAS G330 PIMOL A593 DALIM W157 BEKDO/K0839S1130 W157 AVBOX AVBOX5L |
| Aircraft | A320/M-SDE3FGHIRWY/LB1 |
Departure
| Time | 2026-04-14 11:48 |
|---|---|
| Airport | Shanghai Pudong International Airport (ZSPD) |
Arrival
| Time | 2026-04-14 13:56 |
|---|---|
| Airport | Beijing Daxing International Airport (ZBAD) |
| Time | Latitude | Longitude | Altitude | Speed | Heading |
|---|---|---|---|---|---|
| 2026-04-14 11:21 | 31.13192 | 121.80362 | 25 ft | 0 kts | 97° |
| 2026-04-14 11:38 | 31.13192 | 121.80359 | 23 ft | 2 kts | 97° |
| 2026-04-14 11:39 | 31.13195 | 121.80338 | 23 ft | 3 kts | 97° |
| 2026-04-14 11:39 | 31.13197 | 121.80314 | 23 ft | 3 kts | 97° |
| 2026-04-14 11:39 | 31.13199 | 121.80292 | 23 ft | 3 kts | 101° |
| 2026-04-14 11:39 | 31.13205 | 121.80271 | 25 ft | 3 kts | 122° |
| 2026-04-14 11:40 | 31.13217 | 121.80254 | 23 ft | 3 kts | 150° |
| 2026-04-14 11:40 | 31.13231 | 121.80247 | 25 ft | 1 kts | 162° |
| 2026-04-14 11:40 | 31.13235 | 121.80245 | 24 ft | 0 kts | 162° |
| 2026-04-14 11:43 | 31.13221 | 121.80250 | 24 ft | 5 kts | 162° |
| 2026-04-14 11:43 | 31.13184 | 121.80264 | 26 ft | 5 kts | 162° |
| 2026-04-14 11:43 | 31.13152 | 121.80277 | 23 ft | 4 kts | 162° |
| 2026-04-14 11:44 | 31.13126 | 121.80286 | 23 ft | 3 kts | 162° |
| 2026-04-14 11:44 | 31.13107 | 121.80294 | 23 ft | 2 kts | 162° |
| 2026-04-14 11:44 | 31.13095 | 121.80298 | 23 ft | 1 kts | 162° |
| 2026-04-14 11:44 | 31.13083 | 121.80303 | 23 ft | 4 kts | 162° |
| 2026-04-14 11:45 | 31.13040 | 121.80319 | 23 ft | 9 kts | 162° |
| 2026-04-14 11:45 | 31.12962 | 121.80349 | 24 ft | 14 kts | 162° |
| 2026-04-14 11:45 | 31.12872 | 121.80377 | 23 ft | 12 kts | 182° |
| 2026-04-14 11:45 | 31.12827 | 121.80310 | 24 ft | 10 kts | 252° |
| 2026-04-14 11:46 | 31.12806 | 121.80235 | 23 ft | 9 kts | 252° |
| 2026-04-14 11:46 | 31.12789 | 121.80172 | 23 ft | 7 kts | 252° |
| 2026-04-14 11:46 | 31.12774 | 121.80116 | 23 ft | 9 kts | 252° |
| 2026-04-14 11:46 | 31.12750 | 121.80034 | 25 ft | 13 kts | 251° |
| 2026-04-14 11:47 | 31.12718 | 121.79915 | 23 ft | 17 kts | 263° |
| 2026-04-14 11:47 | 31.12823 | 121.79845 | 24 ft | 20 kts | 342° |
| 2026-04-14 11:47 | 31.13074 | 121.79752 | 21 ft | 70 kts | 342° |
| 2026-04-14 11:47 | 31.13744 | 121.79500 | 24 ft | 129 kts | 342° |
| 2026-04-14 11:48 | 31.14750 | 121.79140 | 120 ft | 165 kts | 343° |
| 2026-04-14 11:48 | 31.15823 | 121.78739 | 808 ft | 161 kts | 340° |
| 2026-04-14 11:48 | 31.16871 | 121.78323 | 1465 ft | 162 kts | 339° |
| 2026-04-14 11:48 | 31.17957 | 121.77873 | 2016 ft | 174 kts | 339° |
| 2026-04-14 11:49 | 31.19168 | 121.77376 | 2296 ft | 196 kts | 340° |
| 2026-04-14 11:49 | 31.20535 | 121.76819 | 2596 ft | 221 kts | 340° |
| 2026-04-14 11:49 | 31.22064 | 121.76196 | 3023 ft | 245 kts | 340° |
| 2026-04-14 11:49 | 31.23729 | 121.75520 | 3712 ft | 257 kts | 340° |
| 2026-04-14 11:50 | 31.25437 | 121.74825 | 4593 ft | 263 kts | 340° |
| 2026-04-14 11:50 | 31.27174 | 121.74114 | 5478 ft | 266 kts | 339° |
| 2026-04-14 11:50 | 31.28908 | 121.73404 | 6373 ft | 269 kts | 338° |
| 2026-04-14 11:51 | 31.32483 | 121.71949 | 8075 ft | 275 kts | 338° |
| 2026-04-14 11:51 | 31.34303 | 121.71214 | 8937 ft | 278 kts | 338° |
| 2026-04-14 11:51 | 31.36143 | 121.70481 | 9799 ft | 281 kts | 338° |
| 2026-04-14 11:51 | 31.38030 | 121.69752 | 10338 ft | 295 kts | 338° |
| 2026-04-14 11:52 | 31.40061 | 121.68973 | 10575 ft | 319 kts | 338° |
| 2026-04-14 11:52 | 31.42132 | 121.67851 | 10765 ft | 337 kts | 322° |
| 2026-04-14 11:52 | 31.43806 | 121.65887 | 11112 ft | 346 kts | 302° |
| 2026-04-14 11:52 | 31.44791 | 121.63318 | 11744 ft | 349 kts | 283° |
| 2026-04-14 11:53 | 31.45018 | 121.60489 | 12464 ft | 351 kts | 271° |
| 2026-04-14 11:53 | 31.45034 | 121.57664 | 13207 ft | 352 kts | 270° |
| 2026-04-14 11:53 | 31.45036 | 121.54789 | 13907 ft | 354 kts | 270° |
| 2026-04-14 11:53 | 31.45032 | 121.51898 | 14509 ft | 356 kts | 270° |
| 2026-04-14 11:54 | 31.45028 | 121.48988 | 15100 ft | 359 kts | 270° |
| 2026-04-14 11:54 | 31.45026 | 121.46056 | 15686 ft | 362 kts | 270° |
| 2026-04-14 11:54 | 31.45026 | 121.43103 | 16254 ft | 364 kts | 269° |
| 2026-04-14 11:54 | 31.45027 | 121.40125 | 16807 ft | 367 kts | 269° |
| 2026-04-14 11:55 | 31.45029 | 121.37129 | 17349 ft | 369 kts | 269° |
| 2026-04-14 11:55 | 31.45029 | 121.34149 | 17882 ft | 372 kts | 269° |
| 2026-04-14 11:55 | 31.45027 | 121.31107 | 18386 ft | 375 kts | 269° |
| 2026-04-14 11:55 | 31.45023 | 121.28046 | 18849 ft | 377 kts | 269° |
| 2026-04-14 11:56 | 31.45017 | 121.24969 | 19321 ft | 379 kts | 269° |
| 2026-04-14 11:56 | 31.45014 | 121.21875 | 19806 ft | 381 kts | 269° |
| 2026-04-14 11:56 | 31.45030 | 121.18763 | 20275 ft | 383 kts | 271° |
| 2026-04-14 11:56 | 31.45513 | 121.15678 | 20712 ft | 390 kts | 285° |
| 2026-04-14 11:57 | 31.46702 | 121.12788 | 21175 ft | 400 kts | 299° |
| 2026-04-14 11:57 | 31.48561 | 121.10313 | 21596 ft | 413 kts | 314° |
| 2026-04-14 11:57 | 31.50973 | 121.08483 | 22000 ft | 427 kts | 328° |
| 2026-04-14 11:57 | 31.53687 | 121.07023 | 22405 ft | 431 kts | 329° |
| 2026-04-14 11:58 | 31.56433 | 121.05567 | 22802 ft | 434 kts | 329° |
| 2026-04-14 11:58 | 31.59197 | 121.04111 | 23194 ft | 437 kts | 329° |
| 2026-04-14 11:58 | 31.61981 | 121.02643 | 23555 ft | 440 kts | 329° |
| 2026-04-14 11:58 | 31.64778 | 121.01164 | 23890 ft | 442 kts | 329° |
| 2026-04-14 11:59 | 31.67586 | 120.99671 | 24245 ft | 444 kts | 328° |
| 2026-04-14 11:59 | 31.70400 | 120.98169 | 24647 ft | 444 kts | 329° |
| 2026-04-14 11:59 | 31.73214 | 120.96663 | 25024 ft | 445 kts | 329° |
| 2026-04-14 11:59 | 31.75995 | 120.95173 | 25384 ft | 446 kts | 329° |
| 2026-04-14 12:00 | 31.78821 | 120.93661 | 25738 ft | 447 kts | 328° |
| 2026-04-14 12:00 | 31.81656 | 120.92146 | 26062 ft | 448 kts | 329° |
| 2026-04-14 12:00 | 31.84500 | 120.90626 | 26375 ft | 450 kts | 328° |
| 2026-04-14 12:00 | 31.87354 | 120.89098 | 26666 ft | 452 kts | 328° |
| 2026-04-14 12:01 | 31.90221 | 120.87561 | 26958 ft | 453 kts | 328° |
| 2026-04-14 12:01 | 31.93097 | 120.86019 | 27246 ft | 455 kts | 328° |
| 2026-04-14 12:01 | 31.95983 | 120.84472 | 27566 ft | 457 kts | 328° |
| 2026-04-14 12:01 | 31.98888 | 120.82908 | 27744 ft | 462 kts | 328° |
| 2026-04-14 12:02 | 32.01780 | 120.81348 | 27952 ft | 465 kts | 328° |
| 2026-04-14 12:02 | 32.04728 | 120.79758 | 28208 ft | 467 kts | 328° |
| 2026-04-14 12:02 | 32.07688 | 120.78167 | 28485 ft | 468 kts | 328° |
| 2026-04-14 12:02 | 32.10545 | 120.76395 | 28843 ft | 458 kts | 319° |
| 2026-04-14 12:03 | 32.12988 | 120.74065 | 29212 ft | 446 kts | 307° |
| 2026-04-14 12:03 | 32.14934 | 120.71285 | 29580 ft | 435 kts | 297° |
| 2026-04-14 12:03 | 32.16359 | 120.68189 | 29963 ft | 425 kts | 287° |
| 2026-04-14 12:03 | 32.17258 | 120.64912 | 30313 ft | 416 kts | 277° |
| 2026-04-14 12:04 | 32.17659 | 120.61609 | 30667 ft | 410 kts | 271° |
| 2026-04-14 12:04 | 32.17935 | 120.58269 | 31043 ft | 408 kts | 271° |
| 2026-04-14 12:04 | 32.18212 | 120.54947 | 31438 ft | 405 kts | 271° |
| 2026-04-14 12:04 | 32.18486 | 120.51653 | 31836 ft | 402 kts | 271° |
| 2026-04-14 12:05 | 32.18758 | 120.48378 | 32241 ft | 399 kts | 271° |
| 2026-04-14 12:05 | 32.19026 | 120.45131 | 32644 ft | 396 kts | 271° |
| 2026-04-14 12:05 | 32.19292 | 120.41903 | 33044 ft | 394 kts | 271° |
| 2026-04-14 12:05 | 32.19556 | 120.38700 | 33442 ft | 391 kts | 271° |
| 2026-04-14 12:06 | 32.19820 | 120.35502 | 33727 ft | 391 kts | 271° |
| 2026-04-14 12:06 | 32.20076 | 120.32350 | 34036 ft | 390 kts | 271° |
| 2026-04-14 12:06 | 32.20332 | 120.29168 | 34338 ft | 388 kts | 271° |
| 2026-04-14 12:06 | 32.20587 | 120.26000 | 34663 ft | 386 kts | 271° |
| 2026-04-14 12:07 | 32.20844 | 120.22853 | 34996 ft | 384 kts | 271° |
| 2026-04-14 12:07 | 32.21100 | 120.19727 | 35315 ft | 381 kts | 270° |
| 2026-04-14 12:07 | 32.21353 | 120.16622 | 35641 ft | 379 kts | 270° |
| 2026-04-14 12:07 | 32.21605 | 120.13536 | 35944 ft | 377 kts | 270° |
| 2026-04-14 12:08 | 32.21855 | 120.10460 | 36071 ft | 376 kts | 270° |
| 2026-04-14 12:08 | 32.22105 | 120.07382 | 36083 ft | 376 kts | 270° |
| 2026-04-14 12:08 | 32.22599 | 120.01278 | 36080 ft | 376 kts | 270° |
| 2026-04-14 12:09 | 32.23091 | 119.95126 | 36081 ft | 376 kts | 270° |
| 2026-04-14 12:09 | 32.23578 | 119.88975 | 36083 ft | 376 kts | 270° |
| 2026-04-14 12:10 | 32.24062 | 119.82825 | 36084 ft | 376 kts | 270° |
| 2026-04-14 12:10 | 32.25526 | 119.76853 | 36100 ft | 396 kts | 291° |
| 2026-04-14 12:11 | 32.27198 | 119.74191 | 36094 ft | 413 kts | 304° |
| 2026-04-14 12:11 | 32.29455 | 119.71981 | 36090 ft | 428 kts | 313° |
| 2026-04-14 12:11 | 32.34309 | 119.67875 | 36084 ft | 430 kts | 313° |
| 2026-04-14 12:12 | 32.39167 | 119.63750 | 36086 ft | 430 kts | 313° |
| 2026-04-14 12:12 | 32.43983 | 119.59625 | 36089 ft | 430 kts | 313° |
| 2026-04-14 12:13 | 32.48834 | 119.55465 | 36091 ft | 431 kts | 313° |
| 2026-04-14 12:13 | 32.53673 | 119.51287 | 36110 ft | 431 kts | 313° |
| 2026-04-14 12:14 | 32.58508 | 119.47101 | 36099 ft | 430 kts | 313° |
| 2026-04-14 12:14 | 32.63351 | 119.42909 | 36051 ft | 433 kts | 313° |
| 2026-04-14 12:15 | 32.68194 | 119.38701 | 36051 ft | 436 kts | 313° |
| 2026-04-14 12:15 | 32.73097 | 119.34433 | 36055 ft | 438 kts | 313° |
| 2026-04-14 12:16 | 32.78025 | 119.30147 | 36072 ft | 440 kts | 313° |
| 2026-04-14 12:16 | 32.82966 | 119.25856 | 36082 ft | 440 kts | 313° |
| 2026-04-14 12:17 | 32.87879 | 119.21579 | 36100 ft | 441 kts | 313° |
| 2026-04-14 12:17 | 32.92823 | 119.17264 | 36102 ft | 441 kts | 313° |
| 2026-04-14 12:18 | 32.97781 | 119.12956 | 36098 ft | 442 kts | 314° |
| 2026-04-14 12:18 | 33.02771 | 119.08672 | 36099 ft | 442 kts | 314° |
| 2026-04-14 12:19 | 33.07724 | 119.04415 | 36104 ft | 442 kts | 314° |
| 2026-04-14 12:19 | 33.12705 | 119.00115 | 36101 ft | 442 kts | 314° |
| 2026-04-14 12:20 | 33.17678 | 118.95812 | 36102 ft | 442 kts | 314° |
| 2026-04-14 12:20 | 33.22644 | 118.91494 | 36109 ft | 442 kts | 314° |
| 2026-04-14 12:21 | 33.27567 | 118.87190 | 36106 ft | 442 kts | 314° |
| 2026-04-14 12:21 | 33.32532 | 118.82851 | 36103 ft | 442 kts | 314° |
| 2026-04-14 12:22 | 33.37515 | 118.78530 | 36101 ft | 443 kts | 314° |
| 2026-04-14 12:22 | 33.42523 | 118.74211 | 36102 ft | 443 kts | 314° |
| 2026-04-14 12:23 | 33.47514 | 118.69883 | 36122 ft | 443 kts | 314° |
| 2026-04-14 12:23 | 33.52467 | 118.65580 | 36134 ft | 443 kts | 315° |
| 2026-04-14 12:24 | 33.57454 | 118.61253 | 36116 ft | 442 kts | 315° |
| 2026-04-14 12:24 | 33.62430 | 118.56926 | 36109 ft | 442 kts | 315° |
| 2026-04-14 12:25 | 33.67407 | 118.52597 | 36108 ft | 442 kts | 315° |
| 2026-04-14 12:25 | 33.72351 | 118.48295 | 36105 ft | 442 kts | 315° |
| 2026-04-14 12:26 | 33.77326 | 118.43958 | 36126 ft | 442 kts | 315° |
| 2026-04-14 12:26 | 33.82297 | 118.39611 | 36115 ft | 442 kts | 315° |
| 2026-04-14 12:27 | 33.87264 | 118.35262 | 36129 ft | 442 kts | 315° |
| 2026-04-14 12:27 | 33.92228 | 118.30909 | 36123 ft | 441 kts | 315° |
| 2026-04-14 12:28 | 33.97160 | 118.26588 | 36108 ft | 441 kts | 315° |
| 2026-04-14 12:28 | 34.02133 | 118.22251 | 36109 ft | 441 kts | 316° |
| 2026-04-14 12:29 | 34.07115 | 118.17915 | 36129 ft | 442 kts | 316° |
| 2026-04-14 12:29 | 34.12092 | 118.13575 | 36117 ft | 442 kts | 316° |
| 2026-04-14 12:30 | 34.17042 | 118.09263 | 36109 ft | 442 kts | 316° |
| 2026-04-14 12:30 | 34.22026 | 118.04919 | 36120 ft | 442 kts | 316° |
| 2026-04-14 12:31 | 34.27077 | 118.00671 | 36112 ft | 448 kts | 323° |
| 2026-04-14 12:31 | 34.29945 | 117.99097 | 36111 ft | 459 kts | 333° |
| 2026-04-14 12:31 | 34.33018 | 117.97969 | 36107 ft | 462 kts | 335° |
| 2026-04-14 12:32 | 34.39152 | 117.95796 | 36121 ft | 463 kts | 335° |
| 2026-04-14 12:32 | 34.45327 | 117.93598 | 36110 ft | 462 kts | 335° |
| 2026-04-14 12:33 | 34.51495 | 117.91389 | 36107 ft | 462 kts | 335° |
| 2026-04-14 12:33 | 34.57665 | 117.89171 | 36103 ft | 463 kts | 335° |
| 2026-04-14 12:34 | 34.63798 | 117.86973 | 36116 ft | 463 kts | 335° |
| 2026-04-14 12:34 | 34.69974 | 117.84757 | 36111 ft | 463 kts | 335° |
| 2026-04-14 12:35 | 34.76145 | 117.82529 | 36118 ft | 463 kts | 335° |
| 2026-04-14 12:35 | 34.82319 | 117.80307 | 36105 ft | 463 kts | 335° |
| 2026-04-14 12:36 | 34.88484 | 117.78060 | 36137 ft | 462 kts | 335° |
| 2026-04-14 12:36 | 34.94594 | 117.75820 | 36115 ft | 461 kts | 335° |
| 2026-04-14 12:37 | 35.00738 | 117.73571 | 36113 ft | 461 kts | 335° |
| 2026-04-14 12:37 | 35.06883 | 117.71320 | 36112 ft | 461 kts | 335° |
| 2026-04-14 12:38 | 35.16088 | 117.67941 | 36122 ft | 460 kts | 335° |
| 2026-04-14 12:39 | 35.22178 | 117.65714 | 36114 ft | 460 kts | 335° |
| 2026-04-14 12:39 | 35.28302 | 117.63459 | 36108 ft | 460 kts | 335° |
| 2026-04-14 12:40 | 35.34426 | 117.61195 | 36130 ft | 460 kts | 335° |
| 2026-04-14 12:40 | 35.40548 | 117.58934 | 36111 ft | 460 kts | 335° |
| 2026-04-14 12:41 | 35.46671 | 117.56671 | 36107 ft | 459 kts | 335° |
| 2026-04-14 12:41 | 35.52749 | 117.54418 | 36101 ft | 459 kts | 335° |
| 2026-04-14 12:42 | 35.58870 | 117.52147 | 36096 ft | 459 kts | 335° |
| 2026-04-14 12:42 | 35.64995 | 117.49875 | 36092 ft | 460 kts | 335° |
| 2026-04-14 12:43 | 35.71080 | 117.47616 | 36095 ft | 460 kts | 335° |
| 2026-04-14 12:43 | 35.77204 | 117.45337 | 36094 ft | 460 kts | 335° |
| 2026-04-14 12:44 | 35.83329 | 117.43044 | 36113 ft | 460 kts | 335° |
| 2026-04-14 12:44 | 35.89458 | 117.40757 | 36102 ft | 460 kts | 335° |
| 2026-04-14 12:45 | 35.98606 | 117.37334 | 36090 ft | 460 kts | 335° |
| 2026-04-14 12:45 | 36.04729 | 117.35046 | 36088 ft | 460 kts | 336° |
| 2026-04-14 12:46 | 36.10865 | 117.32790 | 36106 ft | 460 kts | 335° |
| 2026-04-14 12:46 | 36.16998 | 117.30535 | 36100 ft | 459 kts | 335° |
| 2026-04-14 12:47 | 36.23073 | 117.28277 | 36102 ft | 459 kts | 335° |
| 2026-04-14 12:47 | 36.29184 | 117.26000 | 36102 ft | 458 kts | 335° |
| 2026-04-14 12:48 | 36.35291 | 117.23723 | 36114 ft | 458 kts | 335° |
| 2026-04-14 12:48 | 36.41389 | 117.21440 | 36098 ft | 456 kts | 333° |
| 2026-04-14 12:49 | 36.47170 | 117.18523 | 36088 ft | 451 kts | 329° |
| 2026-04-14 12:49 | 36.52958 | 117.15510 | 36086 ft | 451 kts | 329° |
| 2026-04-14 12:50 | 36.61652 | 117.10974 | 36100 ft | 452 kts | 329° |
| 2026-04-14 12:51 | 36.67456 | 117.07951 | 36094 ft | 452 kts | 329° |
| 2026-04-14 12:51 | 36.73213 | 117.04939 | 36090 ft | 452 kts | 329° |
| 2026-04-14 12:52 | 36.79006 | 117.01904 | 36084 ft | 451 kts | 329° |
| 2026-04-14 12:52 | 36.84794 | 116.98874 | 36104 ft | 451 kts | 328° |
| 2026-04-14 12:53 | 36.90575 | 116.95835 | 36092 ft | 451 kts | 329° |
| 2026-04-14 12:53 | 36.96316 | 116.92818 | 36082 ft | 450 kts | 329° |
| 2026-04-14 12:54 | 37.02091 | 116.89778 | 36074 ft | 450 kts | 328° |
| 2026-04-14 12:54 | 37.07864 | 116.86730 | 36114 ft | 450 kts | 328° |
| 2026-04-14 12:55 | 37.13630 | 116.83677 | 36074 ft | 450 kts | 328° |
| 2026-04-14 12:55 | 37.19393 | 116.80621 | 36071 ft | 450 kts | 328° |
| 2026-04-14 12:56 | 37.25315 | 116.78037 | 36071 ft | 457 kts | 334° |
| 2026-04-14 12:56 | 37.31415 | 116.75747 | 36108 ft | 457 kts | 334° |
| 2026-04-14 12:57 | 37.37511 | 116.73451 | 36092 ft | 457 kts | 334° |
| 2026-04-14 12:57 | 37.43599 | 116.71149 | 36080 ft | 457 kts | 334° |
| 2026-04-14 12:58 | 37.49641 | 116.68855 | 36079 ft | 456 kts | 334° |
| 2026-04-14 12:58 | 37.55718 | 116.66540 | 36089 ft | 456 kts | 333° |
| 2026-04-14 12:59 | 37.61773 | 116.64230 | 36069 ft | 454 kts | 333° |
| 2026-04-14 12:59 | 37.67821 | 116.61927 | 36066 ft | 454 kts | 333° |
| 2026-04-14 13:00 | 37.73826 | 116.59634 | 36064 ft | 454 kts | 333° |
| 2026-04-14 13:00 | 37.79875 | 116.57324 | 36104 ft | 454 kts | 333° |
| 2026-04-14 13:01 | 37.85912 | 116.55013 | 36100 ft | 453 kts | 333° |
| 2026-04-14 13:01 | 37.91930 | 116.52705 | 36088 ft | 451 kts | 333° |
| 2026-04-14 13:02 | 37.97726 | 116.50043 | 36080 ft | 436 kts | 322° |
| 2026-04-14 13:02 | 38.00251 | 116.48017 | 36078 ft | 425 kts | 315° |
| 2026-04-14 13:02 | 38.02634 | 116.45814 | 36088 ft | 423 kts | 315° |
| 2026-04-14 13:03 | 38.07393 | 116.41453 | 36094 ft | 421 kts | 315° |
| 2026-04-14 13:03 | 38.12124 | 116.37117 | 36088 ft | 418 kts | 315° |
| 2026-04-14 13:04 | 38.16830 | 116.32792 | 36085 ft | 417 kts | 315° |
| 2026-04-14 13:04 | 38.19151 | 116.30660 | 35909 ft | 417 kts | 315° |
| 2026-04-14 13:04 | 38.21559 | 116.28581 | 35165 ft | 425 kts | 321° |
| 2026-04-14 13:04 | 38.24316 | 116.27018 | 34283 ft | 444 kts | 332° |
| 2026-04-14 13:05 | 38.27390 | 116.26216 | 33615 ft | 459 kts | 344° |
| 2026-04-14 13:05 | 38.30640 | 116.26240 | 32750 ft | 478 kts | 356° |
| 2026-04-14 13:05 | 38.33949 | 116.27140 | 31795 ft | 492 kts | 5° |
| 2026-04-14 13:05 | 38.37264 | 116.28272 | 30833 ft | 495 kts | 5° |
| 2026-04-14 13:06 | 38.40595 | 116.29425 | 29855 ft | 497 kts | 5° |
| 2026-04-14 13:06 | 38.43889 | 116.30573 | 28742 ft | 498 kts | 6° |
| 2026-04-14 13:06 | 38.47230 | 116.31738 | 27660 ft | 498 kts | 7° |
| 2026-04-14 13:06 | 38.50566 | 116.32900 | 26586 ft | 494 kts | 8° |
| 2026-04-14 13:07 | 38.53852 | 116.34048 | 24805 ft | 489 kts | 9° |
| 2026-04-14 13:07 | 38.57131 | 116.35185 | 23026 ft | 486 kts | 11° |
| 2026-04-14 13:07 | 38.60335 | 116.36298 | 21690 ft | 469 kts | 11° |
| 2026-04-14 13:07 | 38.63433 | 116.37373 | 20328 ft | 455 kts | 11° |
| 2026-04-14 13:08 | 38.66396 | 116.38688 | 19001 ft | 446 kts | 19° |
| 2026-04-14 13:08 | 38.69228 | 116.40195 | 17770 ft | 439 kts | 19° |
| 2026-04-14 13:08 | 38.71992 | 116.41670 | 17109 ft | 432 kts | 20° |
| 2026-04-14 13:08 | 38.74749 | 116.43149 | 16333 ft | 427 kts | 20° |
| 2026-04-14 13:09 | 38.77465 | 116.44609 | 15570 ft | 422 kts | 20° |
| 2026-04-14 13:09 | 38.80150 | 116.46049 | 14949 ft | 414 kts | 20° |
| 2026-04-14 13:09 | 38.82804 | 116.47468 | 14251 ft | 410 kts | 20° |
| 2026-04-14 13:09 | 38.85413 | 116.48865 | 13608 ft | 402 kts | 20° |
| 2026-04-14 13:10 | 38.87945 | 116.50224 | 12696 ft | 387 kts | 20° |
| 2026-04-14 13:10 | 38.90411 | 116.51548 | 12104 ft | 381 kts | 20° |
| 2026-04-14 13:10 | 38.92842 | 116.52855 | 11476 ft | 377 kts | 20° |
| 2026-04-14 13:10 | 38.95190 | 116.54120 | 11222 ft | 363 kts | 20° |
| 2026-04-14 13:11 | 38.97463 | 116.55350 | 11101 ft | 346 kts | 20° |
| 2026-04-14 13:11 | 38.99634 | 116.56527 | 10972 ft | 331 kts | 20° |
| 2026-04-14 13:11 | 39.01710 | 116.57652 | 10849 ft | 318 kts | 20° |
| 2026-04-14 13:11 | 39.03709 | 116.58735 | 10732 ft | 306 kts | 20° |
| 2026-04-14 13:12 | 39.05628 | 116.59767 | 10546 ft | 291 kts | 18° |
| 2026-04-14 13:12 | 39.07540 | 116.60446 | 10187 ft | 283 kts | 7° |
| 2026-04-14 13:12 | 39.09486 | 116.60620 | 9953 ft | 279 kts | 356° |
| 2026-04-14 13:12 | 39.11408 | 116.60372 | 9830 ft | 278 kts | 351° |
| 2026-04-14 13:13 | 39.13299 | 116.60073 | 9701 ft | 278 kts | 351° |
| 2026-04-14 13:13 | 39.15217 | 116.59776 | 9568 ft | 278 kts | 351° |
| 2026-04-14 13:13 | 39.17136 | 116.59483 | 9439 ft | 277 kts | 351° |
| 2026-04-14 13:13 | 39.19052 | 116.59188 | 9311 ft | 277 kts | 352° |
| 2026-04-14 13:14 | 39.20967 | 116.58891 | 9030 ft | 277 kts | 352° |
| 2026-04-14 13:14 | 39.22877 | 116.58596 | 8678 ft | 276 kts | 352° |
| 2026-04-14 13:14 | 39.24780 | 116.58301 | 8323 ft | 275 kts | 352° |
| 2026-04-14 13:14 | 39.26673 | 116.58006 | 7964 ft | 274 kts | 352° |
| 2026-04-14 13:15 | 39.28563 | 116.57710 | 7608 ft | 274 kts | 352° |
| 2026-04-14 13:15 | 39.30428 | 116.57419 | 7254 ft | 273 kts | 352° |
| 2026-04-14 13:15 | 39.32318 | 116.57127 | 6904 ft | 273 kts | 352° |
| 2026-04-14 13:15 | 39.34201 | 116.56839 | 6720 ft | 273 kts | 352° |
| 2026-04-14 13:16 | 39.36093 | 116.56546 | 6581 ft | 274 kts | 352° |
| 2026-04-14 13:16 | 39.37988 | 116.56250 | 6461 ft | 275 kts | 352° |
| 2026-04-14 13:16 | 39.39893 | 116.55949 | 6298 ft | 276 kts | 352° |
| 2026-04-14 13:16 | 39.41801 | 116.55649 | 6130 ft | 276 kts | 352° |
| 2026-04-14 13:17 | 39.43707 | 116.55352 | 5970 ft | 276 kts | 351° |
| 2026-04-14 13:17 | 39.45588 | 116.55058 | 5822 ft | 276 kts | 352° |
| 2026-04-14 13:17 | 39.47498 | 116.54760 | 5662 ft | 277 kts | 352° |
| 2026-04-14 13:17 | 39.49414 | 116.54462 | 5495 ft | 277 kts | 352° |
| 2026-04-14 13:18 | 39.51327 | 116.54165 | 5334 ft | 277 kts | 352° |
| 2026-04-14 13:18 | 39.52591 | 116.53966 | 5225 ft | 277 kts | 352° |
| 2026-04-14 13:18 | 39.55147 | 116.53561 | 5010 ft | 276 kts | 352° |
| 2026-04-14 13:18 | 39.57052 | 116.53257 | 4893 ft | 276 kts | 352° |
| 2026-04-14 13:19 | 39.58956 | 116.52955 | 4784 ft | 276 kts | 352° |
| 2026-04-14 13:19 | 39.60836 | 116.52660 | 4676 ft | 276 kts | 352° |
| 2026-04-14 13:19 | 39.62737 | 116.52362 | 4569 ft | 275 kts | 352° |
| 2026-04-14 13:19 | 39.64640 | 116.52062 | 4461 ft | 275 kts | 352° |
| 2026-04-14 13:20 | 39.66537 | 116.51766 | 4359 ft | 275 kts | 352° |
| 2026-04-14 13:20 | 39.68434 | 116.51467 | 4248 ft | 275 kts | 353° |
| 2026-04-14 13:20 | 39.70329 | 116.51170 | 4137 ft | 274 kts | 353° |
| 2026-04-14 13:20 | 39.72221 | 116.50874 | 4025 ft | 273 kts | 353° |
| 2026-04-14 13:21 | 39.73471 | 116.50679 | 3963 ft | 273 kts | 353° |
| 2026-04-14 13:21 | 39.75348 | 116.50385 | 3850 ft | 267 kts | 352° |
| 2026-04-14 13:21 | 39.77708 | 116.49978 | 3675 ft | 250 kts | 346° |
| 2026-04-14 13:21 | 39.79173 | 116.48947 | 3503 ft | 236 kts | 310° |
| 2026-04-14 13:22 | 39.79924 | 116.47118 | 3456 ft | 230 kts | 278° |
| 2026-04-14 13:22 | 39.79960 | 116.45753 | 3419 ft | 228 kts | 260° |
| 2026-04-14 13:22 | 39.79699 | 116.43713 | 3357 ft | 229 kts | 260° |
| 2026-04-14 13:22 | 39.79502 | 116.41695 | 3273 ft | 219 kts | 261° |
| 2026-04-14 13:23 | 39.79334 | 116.39773 | 3190 ft | 209 kts | 259° |
| 2026-04-14 13:23 | 39.78904 | 116.38006 | 3110 ft | 203 kts | 240° |
| 2026-04-14 13:23 | 39.78090 | 116.36581 | 3030 ft | 192 kts | 222° |
| 2026-04-14 13:23 | 39.77018 | 116.35601 | 2930 ft | 186 kts | 205° |
| 2026-04-14 13:24 | 39.75796 | 116.35108 | 2836 ft | 182 kts | 188° |
| 2026-04-14 13:24 | 39.73458 | 116.35287 | 2693 ft | 159 kts | 174° |
| 2026-04-14 13:24 | 39.72399 | 116.35455 | 2621 ft | 148 kts | 174° |
| 2026-04-14 13:25 | 39.71400 | 116.35613 | 2586 ft | 143 kts | 174° |
| 2026-04-14 13:25 | 39.70423 | 116.35768 | 2532 ft | 141 kts | 174° |
| 2026-04-14 13:26 | 39.67615 | 116.36214 | 2378 ft | 133 kts | 174° |
| 2026-04-14 13:26 | 39.66700 | 116.36359 | 2334 ft | 133 kts | 174° |
| 2026-04-14 13:26 | 39.65784 | 116.36504 | 2277 ft | 132 kts | 174° |
| 2026-04-14 13:26 | 39.64882 | 116.36647 | 2229 ft | 133 kts | 174° |
| 2026-04-14 13:27 | 39.63967 | 116.36792 | 2178 ft | 133 kts | 174° |
| 2026-04-14 13:27 | 39.63051 | 116.36938 | 2129 ft | 133 kts | 174° |
| 2026-04-14 13:27 | 39.62136 | 116.37083 | 2087 ft | 133 kts | 174° |
| 2026-04-14 13:27 | 39.61218 | 116.37228 | 1970 ft | 133 kts | 173° |
| 2026-04-14 13:28 | 39.60302 | 116.37373 | 1819 ft | 133 kts | 173° |
| 2026-04-14 13:28 | 39.59382 | 116.37519 | 1653 ft | 133 kts | 173° |
| 2026-04-14 13:28 | 39.58465 | 116.37664 | 1478 ft | 133 kts | 173° |
| 2026-04-14 13:28 | 39.57561 | 116.37807 | 1303 ft | 133 kts | 172° |
| 2026-04-14 13:29 | 39.56644 | 116.37953 | 1124 ft | 133 kts | 172° |
| 2026-04-14 13:29 | 39.55724 | 116.38098 | 940 ft | 133 kts | 172° |
| 2026-04-14 13:29 | 39.54803 | 116.38244 | 758 ft | 133 kts | 172° |
| 2026-04-14 13:29 | 39.53886 | 116.38389 | 579 ft | 132 kts | 172° |
| 2026-04-14 13:30 | 39.52974 | 116.38533 | 391 ft | 132 kts | 172° |
| 2026-04-14 13:30 | 39.52074 | 116.38676 | 210 ft | 127 kts | 172° |
| 2026-04-14 13:30 | 39.51168 | 116.38824 | 129 ft | 129 kts | 173° |
| 2026-04-14 13:30 | 39.50197 | 116.38970 | 528 ft | 147 kts | 172° |
| 2026-04-14 13:31 | 39.49154 | 116.39133 | 1019 ft | 156 kts | 171° |
| 2026-04-14 13:31 | 39.48033 | 116.39312 | 1400 ft | 166 kts | 171° |
| 2026-04-14 13:31 | 39.46875 | 116.39495 | 1879 ft | 168 kts | 172° |
| 2026-04-14 13:31 | 39.45715 | 116.39679 | 2363 ft | 169 kts | 173° |
| 2026-04-14 13:32 | 39.44546 | 116.39864 | 2986 ft | 168 kts | 175° |
| 2026-04-14 13:32 | 39.43358 | 116.40051 | 3539 ft | 177 kts | 176° |
| 2026-04-14 13:32 | 39.42109 | 116.40246 | 3992 ft | 185 kts | 176° |
| 2026-04-14 13:32 | 39.40827 | 116.40448 | 4049 ft | 185 kts | 176° |
| 2026-04-14 13:33 | 39.39568 | 116.40647 | 4062 ft | 185 kts | 176° |
| 2026-04-14 13:33 | 39.38293 | 116.40849 | 4055 ft | 185 kts | 176° |
| 2026-04-14 13:33 | 39.37017 | 116.41050 | 4028 ft | 187 kts | 176° |
| 2026-04-14 13:33 | 39.35711 | 116.41255 | 4020 ft | 189 kts | 176° |
| 2026-04-14 13:34 | 39.33090 | 116.41668 | 4028 ft | 190 kts | 176° |
| 2026-04-14 13:34 | 39.31781 | 116.41901 | 4020 ft | 191 kts | 169° |
| 2026-04-14 13:34 | 39.30615 | 116.42743 | 4012 ft | 201 kts | 136° |
| 2026-04-14 13:35 | 39.29986 | 116.44396 | 4029 ft | 219 kts | 99° |
| 2026-04-14 13:35 | 39.30282 | 116.46316 | 3955 ft | 222 kts | 59° |
| 2026-04-14 13:35 | 39.31433 | 116.47559 | 3724 ft | 218 kts | 17° |
| 2026-04-14 13:35 | 39.32948 | 116.47723 | 3646 ft | 227 kts | 353° |
| 2026-04-14 13:36 | 39.34546 | 116.47684 | 3580 ft | 231 kts | 358° |
| 2026-04-14 13:36 | 39.36157 | 116.47753 | 3503 ft | 232 kts | 0° |
| 2026-04-14 13:36 | 39.37770 | 116.47851 | 3464 ft | 232 kts | 0° |
| 2026-04-14 13:36 | 39.39381 | 116.47948 | 3397 ft | 232 kts | 0° |
| 2026-04-14 13:37 | 39.40971 | 116.48032 | 3317 ft | 232 kts | 360° |
| 2026-04-14 13:37 | 39.42582 | 116.48109 | 3247 ft | 232 kts | 359° |
| 2026-04-14 13:37 | 39.44193 | 116.48178 | 3172 ft | 231 kts | 359° |
| 2026-04-14 13:37 | 39.45803 | 116.48245 | 3084 ft | 232 kts | 360° |
| 2026-04-14 13:38 | 39.47404 | 116.48313 | 2998 ft | 230 kts | 0° |
| 2026-04-14 13:38 | 39.49004 | 116.48381 | 2931 ft | 229 kts | 0° |
| 2026-04-14 13:38 | 39.50595 | 116.48448 | 2848 ft | 228 kts | 0° |
| 2026-04-14 13:38 | 39.52178 | 116.48511 | 2778 ft | 225 kts | 0° |
| 2026-04-14 13:39 | 39.53708 | 116.48572 | 2684 ft | 216 kts | 0° |
| 2026-04-14 13:39 | 39.55144 | 116.48627 | 2566 ft | 204 kts | 0° |
| 2026-04-14 13:39 | 39.56533 | 116.48679 | 2448 ft | 197 kts | 0° |
| 2026-04-14 13:39 | 39.57880 | 116.48729 | 2328 ft | 189 kts | 1° |
| 2026-04-14 13:40 | 39.59158 | 116.48779 | 2193 ft | 179 kts | 1° |
| 2026-04-14 13:40 | 39.60369 | 116.48826 | 2086 ft | 169 kts | 1° |
| 2026-04-14 13:40 | 39.61513 | 116.48871 | 2014 ft | 159 kts | 1° |
| 2026-04-14 13:40 | 39.62578 | 116.48912 | 1991 ft | 150 kts | 1° |
| 2026-04-14 13:41 | 39.63598 | 116.48951 | 1994 ft | 143 kts | 1° |
| 2026-04-14 13:41 | 39.64570 | 116.48987 | 1977 ft | 140 kts | 1° |
| 2026-04-14 13:41 | 39.65541 | 116.49023 | 1972 ft | 139 kts | 1° |
| 2026-04-14 13:41 | 39.66506 | 116.49058 | 1970 ft | 139 kts | 1° |
| 2026-04-14 13:42 | 39.67474 | 116.49095 | 1971 ft | 139 kts | 1° |
| 2026-04-14 13:42 | 39.68441 | 116.49133 | 1969 ft | 139 kts | 1° |
| 2026-04-14 13:42 | 39.69409 | 116.49171 | 1967 ft | 139 kts | 1° |
| 2026-04-14 13:42 | 39.70372 | 116.49210 | 1966 ft | 139 kts | 1° |
| 2026-04-14 13:43 | 39.71342 | 116.49249 | 1962 ft | 139 kts | 1° |
| 2026-04-14 13:43 | 39.72310 | 116.49287 | 1961 ft | 139 kts | 1° |
| 2026-04-14 13:43 | 39.73277 | 116.49325 | 1962 ft | 139 kts | 1° |
| 2026-04-14 13:43 | 39.74243 | 116.49362 | 1960 ft | 139 kts | 1° |
| 2026-04-14 13:44 | 39.75198 | 116.49399 | 1959 ft | 139 kts | 1° |
| 2026-04-14 13:44 | 39.76164 | 116.49436 | 1959 ft | 139 kts | 1° |
| 2026-04-14 13:44 | 39.77130 | 116.49473 | 1957 ft | 139 kts | 1° |
| 2026-04-14 13:44 | 39.78096 | 116.49502 | 1955 ft | 139 kts | 356° |
| 2026-04-14 13:45 | 39.79008 | 116.49144 | 1956 ft | 137 kts | 327° |
| 2026-04-14 13:45 | 39.79693 | 116.48305 | 1957 ft | 136 kts | 301° |
| 2026-04-14 13:45 | 39.80024 | 116.47176 | 1956 ft | 134 kts | 275° |
| 2026-04-14 13:45 | 39.79981 | 116.45979 | 1954 ft | 133 kts | 261° |
| 2026-04-14 13:46 | 39.79868 | 116.44805 | 1953 ft | 133 kts | 261° |
| 2026-04-14 13:46 | 39.79754 | 116.43615 | 1954 ft | 133 kts | 261° |
| 2026-04-14 13:46 | 39.79641 | 116.42424 | 1954 ft | 133 kts | 261° |
| 2026-04-14 13:46 | 39.79529 | 116.41233 | 1954 ft | 133 kts | 261° |
| 2026-04-14 13:47 | 39.79417 | 116.40043 | 1957 ft | 133 kts | 261° |
| 2026-04-14 13:47 | 39.79305 | 116.38853 | 1957 ft | 133 kts | 261° |
| 2026-04-14 13:47 | 39.79193 | 116.37663 | 1955 ft | 133 kts | 261° |
| 2026-04-14 13:47 | 39.79066 | 116.36478 | 1953 ft | 132 kts | 254° |
| 2026-04-14 13:48 | 39.78645 | 116.35453 | 1956 ft | 131 kts | 226° |
| 2026-04-14 13:48 | 39.77894 | 116.34809 | 1957 ft | 131 kts | 198° |
| 2026-04-14 13:48 | 39.76994 | 116.34721 | 1959 ft | 131 kts | 173° |
| 2026-04-14 13:48 | 39.76087 | 116.34867 | 1959 ft | 131 kts | 174° |
| 2026-04-14 13:49 | 39.75180 | 116.35011 | 1961 ft | 131 kts | 174° |
| 2026-04-14 13:49 | 39.74270 | 116.35156 | 1962 ft | 132 kts | 174° |
| 2026-04-14 13:49 | 39.73363 | 116.35300 | 1963 ft | 132 kts | 174° |
| 2026-04-14 13:49 | 39.72454 | 116.35445 | 1964 ft | 132 kts | 174° |
| 2026-04-14 13:50 | 39.71545 | 116.35589 | 1964 ft | 132 kts | 174° |
| 2026-04-14 13:50 | 39.70649 | 116.35731 | 1965 ft | 131 kts | 174° |
| 2026-04-14 13:50 | 39.69740 | 116.35876 | 1969 ft | 132 kts | 173° |
| 2026-04-14 13:50 | 39.68828 | 116.36021 | 1968 ft | 132 kts | 173° |
| 2026-04-14 13:51 | 39.67916 | 116.36166 | 1967 ft | 132 kts | 173° |
| 2026-04-14 13:51 | 39.67003 | 116.36311 | 1970 ft | 132 kts | 173° |
| 2026-04-14 13:51 | 39.66091 | 116.36455 | 1971 ft | 132 kts | 173° |
| 2026-04-14 13:51 | 39.65179 | 116.36600 | 1972 ft | 132 kts | 173° |
| 2026-04-14 13:52 | 39.64266 | 116.36745 | 1976 ft | 132 kts | 173° |
| 2026-04-14 13:52 | 39.63354 | 116.36889 | 1976 ft | 132 kts | 173° |
| 2026-04-14 13:52 | 39.62456 | 116.37032 | 1976 ft | 132 kts | 173° |
| 2026-04-14 13:52 | 39.61544 | 116.37176 | 1955 ft | 132 kts | 173° |
| 2026-04-14 13:53 | 39.60631 | 116.37321 | 1847 ft | 132 kts | 173° |
| 2026-04-14 13:53 | 39.59718 | 116.37466 | 1712 ft | 132 kts | 173° |
| 2026-04-14 13:53 | 39.58805 | 116.37610 | 1538 ft | 132 kts | 173° |
| 2026-04-14 13:53 | 39.57892 | 116.37755 | 1366 ft | 132 kts | 172° |
| 2026-04-14 13:54 | 39.56979 | 116.37900 | 1188 ft | 132 kts | 172° |
| 2026-04-14 13:54 | 39.56068 | 116.38043 | 1015 ft | 132 kts | 172° |
| 2026-04-14 13:54 | 39.55154 | 116.38186 | 819 ft | 132 kts | 172° |
| 2026-04-14 13:54 | 39.54250 | 116.38333 | 639 ft | 133 kts | 173° |
| 2026-04-14 13:55 | 39.53332 | 116.38476 | 463 ft | 133 kts | 173° |
| 2026-04-14 13:55 | 39.52413 | 116.38624 | 275 ft | 133 kts | 173° |
| 2026-04-14 13:55 | 39.51500 | 116.38772 | 112 ft | 132 kts | 173° |
| 2026-04-14 13:55 | 39.50704 | 116.38896 | 97 ft | 93 kts | 173° |
| 2026-04-14 13:56 | 39.50235 | 116.38971 | 94 ft | 43 kts | 173° |
| 2026-04-14 13:56 | 39.50074 | 116.39014 | 96 ft | 17 kts | 157° |
| 2026-04-14 13:56 | 39.49971 | 116.39081 | 97 ft | 16 kts | 150° |
| 2026-04-14 13:56 | 39.49887 | 116.39154 | 93 ft | 13 kts | 145° |
| 2026-04-14 13:57 | 39.49812 | 116.39222 | 90 ft | 13 kts | 145° |
| 2026-04-14 13:57 | 39.49730 | 116.39272 | 89 ft | 13 kts | 167° |
| 2026-04-14 13:57 | 39.49646 | 116.39285 | 91 ft | 12 kts | 172° |
| 2026-04-14 13:57 | 39.49550 | 116.39302 | 90 ft | 16 kts | 172° |
| 2026-04-14 13:58 | 39.49429 | 116.39323 | 89 ft | 20 kts | 173° |
| 2026-04-14 13:58 | 39.49292 | 116.39360 | 90 ft | 18 kts | 145° |
| 2026-04-14 13:58 | 39.49195 | 116.39445 | 87 ft | 14 kts | 147° |
| 2026-04-14 13:58 | 39.49142 | 116.39534 | 86 ft | 13 kts | 89° |
| 2026-04-14 13:59 | 39.49152 | 116.39642 | 87 ft | 11 kts | 83° |
| 2026-04-14 13:59 | 39.49161 | 116.39736 | 86 ft | 10 kts | 83° |
| 2026-04-14 13:59 | 39.49168 | 116.39812 | 88 ft | 7 kts | 83° |
| 2026-04-14 13:59 | 39.49180 | 116.39934 | 98 ft | 20 kts | 82° |
| 2026-04-14 14:00 | 39.49197 | 116.40105 | 97 ft | 13 kts | 82° |
| 2026-04-14 14:00 | 39.49201 | 116.40143 | 93 ft | 5 kts | 83° |
| 2026-04-14 14:00 | 39.49203 | 116.40170 | 91 ft | 5 kts | 83° |
| 2026-04-14 14:00 | 39.49218 | 116.40230 | 89 ft | 8 kts | 51° |
| 2026-04-14 14:01 | 39.49271 | 116.40238 | 88 ft | 7 kts | 354° |
| 2026-04-14 14:01 | 39.49319 | 116.40230 | 89 ft | 7 kts | 352° |
| 2026-04-14 14:01 | 39.49361 | 116.40226 | 89 ft | 6 kts | 6° |
| 2026-04-14 14:01 | 39.49389 | 116.40267 | 89 ft | 10 kts | 81° |
| 2026-04-14 14:02 | 39.49454 | 116.40323 | 88 ft | 17 kts | 354° |
| 2026-04-14 14:02 | 39.49578 | 116.40303 | 86 ft | 19 kts | 352° |
| 2026-04-14 14:02 | 39.49720 | 116.40279 | 86 ft | 22 kts | 353° |
| 2026-04-14 14:02 | 39.49877 | 116.40255 | 86 ft | 24 kts | 353° |
| 2026-04-14 14:03 | 39.49993 | 116.40240 | 87 ft | 8 kts | 360° |
| 2026-04-14 14:03 | 39.50021 | 116.40285 | 88 ft | 7 kts | 76° |
| 2026-04-14 14:03 | 39.50057 | 116.40338 | 90 ft | 12 kts | 22° |
| 2026-04-14 14:03 | 39.50125 | 116.40424 | 88 ft | 17 kts | 83° |
| 2026-04-14 14:04 | 39.50142 | 116.40573 | 85 ft | 13 kts | 67° |
| 2026-04-14 14:04 | 39.50191 | 116.40607 | 87 ft | 8 kts | 355° |
| 2026-04-14 14:04 | 39.50240 | 116.40600 | 86 ft | 7 kts | 353° |
| 2026-04-14 14:04 | 39.50281 | 116.40593 | 86 ft | 6 kts | 353° |
| 2026-04-14 14:05 | 39.50324 | 116.40586 | 87 ft | 8 kts | 353° |
| 2026-04-14 14:05 | 39.50374 | 116.40586 | 86 ft | 7 kts | 15° |
| 2026-04-14 14:05 | 39.50409 | 116.40614 | 88 ft | 6 kts | 33° |
| 2026-04-14 14:05 | 39.50441 | 116.40636 | 86 ft | 5 kts | 20° |
| 2026-04-14 14:06 | 39.50472 | 116.40645 | 87 ft | 6 kts | 7° |
| 2026-04-14 14:06 | 39.50515 | 116.40642 | 86 ft | 6 kts | 345° |
| 2026-04-14 14:06 | 39.50549 | 116.40627 | 87 ft | 5 kts | 342° |
| 2026-04-14 14:06 | 39.50574 | 116.40617 | 87 ft | 3 kts | 342° |
| 2026-04-14 14:07 | 39.50583 | 116.40613 | 86 ft | 0 kts | 342° |
| 2026-04-14 14:07 | 39.50584 | 116.40612 | 86 ft | 0 kts | 342° |